createdAt,value
2018-07-17T00:00:15.524Z,19.40
2018-07-17T00:02:44.656Z,19.40
2018-07-17T00:05:13.937Z,19.30
2018-07-17T00:07:43.766Z,19.30
2018-07-17T00:10:12.943Z,19.30
2018-07-17T00:12:42.241Z,19.20
2018-07-17T00:15:11.271Z,19.20
2018-07-17T00:17:40.347Z,19.20
2018-07-17T00:20:09.516Z,19.20
2018-07-17T00:22:38.775Z,19.20
2018-07-17T00:25:07.973Z,19.30
2018-07-17T00:27:37.258Z,19.30
2018-07-17T00:30:06.423Z,19.30
2018-07-17T00:32:35.553Z,19.30
2018-07-17T00:35:04.715Z,19.40
2018-07-17T00:37:33.754Z,19.40
2018-07-17T00:40:02.791Z,19.50
2018-07-17T00:42:32.048Z,19.50
2018-07-17T00:45:01.232Z,19.50
2018-07-17T00:47:30.343Z,19.50
2018-07-17T00:50:00.343Z,19.50
2018-07-17T00:52:29.763Z,19.50
2018-07-17T00:54:59.461Z,19.50
2018-07-17T00:57:28.694Z,19.60
2018-07-17T00:59:58.156Z,19.60
2018-07-17T01:02:32.613Z,19.60
2018-07-17T01:05:07.141Z,19.60
2018-07-17T01:07:41.591Z,19.60
2018-07-17T01:10:15.872Z,19.60
2018-07-17T01:12:44.235Z,19.60
2018-07-17T01:15:32.101Z,19.60
2018-07-17T01:18:01.224Z,19.70
2018-07-17T01:20:30.672Z,19.70
2018-07-17T01:23:00.588Z,19.70
2018-07-17T01:25:29.751Z,19.70
2018-07-17T01:27:58.879Z,19.70
2018-07-17T01:30:28.653Z,19.60
2018-07-17T01:32:57.823Z,19.60
2018-07-17T01:35:26.983Z,19.60
2018-07-17T01:37:56.076Z,19.60
2018-07-17T01:40:26.233Z,19.60
2018-07-17T01:42:55.505Z,19.60
2018-07-17T01:45:25.202Z,19.70
2018-07-17T01:47:54.645Z,19.70
2018-07-17T01:50:23.980Z,19.70
2018-07-17T01:52:53.104Z,19.70
2018-07-17T01:55:22.400Z,19.70
2018-07-17T01:57:51.506Z,19.60
2018-07-17T02:00:21.137Z,19.60
2018-07-17T02:02:50.519Z,19.60
2018-07-17T02:05:19.822Z,19.50
2018-07-17T02:07:49.431Z,19.50
2018-07-17T02:10:19.561Z,19.50
2018-07-17T02:12:48.797Z,19.40
2018-07-17T02:15:17.955Z,19.40
2018-07-17T02:17:47.338Z,19.30
2018-07-17T02:20:16.637Z,19.30
2018-07-17T02:22:45.836Z,19.20
2018-07-17T02:25:15.011Z,19.20
2018-07-17T02:27:44.311Z,19.20
2018-07-17T02:30:13.428Z,19.20
2018-07-17T02:32:42.563Z,19.20
2018-07-17T02:35:12.236Z,19.20
2018-07-17T02:37:41.332Z,19.20
2018-07-17T02:40:10.839Z,19.30
2018-07-17T02:42:40.151Z,19.30
2018-07-17T02:45:09.360Z,19.30
2018-07-17T02:47:38.640Z,19.20
2018-07-17T02:50:07.794Z,19.30
2018-07-17T02:52:38.085Z,19.30
2018-07-17T02:55:07.590Z,19.30
2018-07-17T02:57:36.774Z,19.30
2018-07-17T03:00:06.024Z,19.30
2018-07-17T03:02:35.808Z,19.30
2018-07-17T03:05:05.421Z,19.40
2018-07-17T03:07:34.616Z,19.30
2018-07-17T03:10:04.457Z,19.40
2018-07-17T03:12:33.805Z,19.30
2018-07-17T03:15:03.000Z,19.30
2018-07-17T03:17:32.417Z,19.40
2018-07-17T03:20:01.675Z,19.40
2018-07-17T03:22:31.026Z,19.40
2018-07-17T03:25:00.199Z,19.30
2018-07-17T03:27:29.564Z,19.30
2018-07-17T03:29:58.690Z,19.20
2018-07-17T03:32:28.008Z,19.20
2018-07-17T03:34:57.180Z,19.10
2018-07-17T03:37:26.378Z,19.00
2018-07-17T03:39:55.563Z,19.00
2018-07-17T03:42:24.716Z,18.90
2018-07-17T03:44:53.884Z,18.80
2018-07-17T03:47:22.992Z,18.70
2018-07-17T03:49:52.155Z,18.60
2018-07-17T03:52:21.459Z,18.60
2018-07-17T03:54:50.720Z,18.50
2018-07-17T03:57:19.782Z,18.50
2018-07-17T03:59:48.976Z,18.50
2018-07-17T04:02:18.200Z,18.50
2018-07-17T04:04:47.850Z,18.40
2018-07-17T04:07:21.845Z,18.40
2018-07-17T04:09:51.087Z,18.40
2018-07-17T04:12:20.412Z,18.40
2018-07-17T04:14:51.888Z,18.30
2018-07-17T04:17:22.231Z,18.30
2018-07-17T04:19:51.536Z,18.30
2018-07-17T04:22:20.738Z,18.20
2018-07-17T04:24:50.046Z,18.20
2018-07-17T04:27:19.282Z,18.20
2018-07-17T04:29:49.283Z,18.20
2018-07-17T04:32:18.429Z,18.30
2018-07-17T04:34:47.547Z,18.50
2018-07-17T04:37:16.877Z,18.80
2018-07-17T04:39:46.336Z,18.80
2018-07-17T04:42:15.505Z,18.70
2018-07-17T04:44:45.172Z,18.70
2018-07-17T04:47:14.270Z,18.60
2018-07-17T04:49:43.723Z,18.50
2018-07-17T04:52:12.997Z,18.50
2018-07-17T04:54:42.284Z,18.50
2018-07-17T04:57:11.603Z,18.60
2018-07-17T04:59:40.733Z,18.50
2018-07-17T05:02:10.094Z,18.60
2018-07-17T05:04:39.228Z,18.60
2018-07-17T05:07:08.541Z,18.70
2018-07-17T05:09:37.987Z,18.80
2018-07-17T05:12:07.198Z,18.80
2018-07-17T05:14:36.470Z,18.90
2018-07-17T05:17:06.021Z,18.90
2018-07-17T05:19:35.308Z,19.00
2018-07-17T05:24:35.031Z,19.00
2018-07-17T05:27:04.220Z,19.10
2018-07-17T05:29:33.472Z,19.10
2018-07-17T05:32:02.614Z,19.30
2018-07-17T05:34:31.842Z,19.30
2018-07-17T05:37:01.030Z,19.30
2018-07-17T05:39:30.335Z,19.40
2018-07-17T05:42:00.025Z,19.50
2018-07-17T05:44:29.456Z,19.60
2018-07-17T05:46:58.665Z,19.60
2018-07-17T05:49:27.812Z,19.70
2018-07-17T05:51:57.071Z,19.70
2018-07-17T05:54:26.322Z,19.80
2018-07-17T05:56:55.542Z,19.90
2018-07-17T05:59:24.807Z,20.00
2018-07-17T06:01:54.350Z,20.00
2018-07-17T06:04:23.520Z,20.00
2018-07-17T06:06:52.699Z,20.00
2018-07-17T06:09:21.919Z,20.10
2018-07-17T06:11:51.131Z,20.10
2018-07-17T06:14:20.302Z,20.20
2018-07-17T06:16:49.353Z,20.20
2018-07-17T06:19:18.488Z,20.30
2018-07-17T06:21:47.713Z,20.20
2018-07-17T06:24:17.506Z,20.30
2018-07-17T06:26:47.429Z,20.40
2018-07-17T06:29:17.346Z,20.50
2018-07-17T06:31:46.677Z,20.50
2018-07-17T06:34:15.911Z,20.60
2018-07-17T06:36:45.020Z,20.70
2018-07-17T06:39:14.095Z,20.70
2018-07-17T06:41:43.242Z,20.70
2018-07-17T06:44:13.128Z,20.80
2018-07-17T06:46:42.300Z,20.80
2018-07-17T06:49:11.655Z,20.90
2018-07-17T06:51:40.960Z,20.90
2018-07-17T06:54:10.844Z,20.90
2018-07-17T06:56:39.865Z,20.90
2018-07-17T06:59:09.200Z,20.90
2018-07-17T07:01:39.256Z,20.90
2018-07-17T07:04:08.321Z,21.00
2018-07-17T07:06:37.672Z,21.10
2018-07-17T07:09:08.319Z,21.10
2018-07-17T07:11:37.525Z,21.10
2018-07-17T07:14:07.129Z,21.20
2018-07-17T07:16:36.191Z,21.20
2018-07-17T07:19:06.122Z,21.30
2018-07-17T07:21:35.591Z,21.30
2018-07-17T07:24:04.820Z,21.40
2018-07-17T07:26:34.108Z,21.50
2018-07-17T07:29:03.557Z,21.60
2018-07-17T07:31:32.603Z,21.70
2018-07-17T07:34:02.064Z,21.60
2018-07-17T07:36:31.423Z,21.70
2018-07-17T07:39:00.537Z,21.70
2018-07-17T07:41:29.767Z,21.70
2018-07-17T07:43:59.033Z,21.80
2018-07-17T07:46:28.383Z,21.80
2018-07-17T07:48:57.524Z,21.90
2018-07-17T07:51:26.719Z,21.90
2018-07-17T07:53:55.880Z,21.90
2018-07-17T07:56:25.248Z,21.90
2018-07-17T07:58:54.723Z,22.00
2018-07-17T08:01:23.978Z,22.20
2018-07-17T08:03:53.098Z,22.30
2018-07-17T08:06:22.107Z,22.40
2018-07-17T08:08:51.176Z,22.60
2018-07-17T08:11:20.436Z,22.70
2018-07-17T08:13:49.585Z,22.80
2018-07-17T08:16:18.875Z,22.80
2018-07-17T08:18:48.091Z,22.80
2018-07-17T08:21:17.416Z,22.90
2018-07-17T08:23:46.596Z,22.90
2018-07-17T08:26:15.796Z,23.10
2018-07-17T08:28:45.012Z,23.10
2018-07-17T08:31:14.182Z,23.20
2018-07-17T08:33:43.406Z,23.30
2018-07-17T08:36:13.081Z,23.30
2018-07-17T08:38:42.926Z,23.30
2018-07-17T08:41:12.536Z,23.40
2018-07-17T08:43:42.167Z,23.60
2018-07-17T08:46:11.234Z,23.80
2018-07-17T08:48:40.441Z,23.60
2018-07-17T08:51:09.485Z,23.50
2018-07-17T08:53:38.558Z,23.70
2018-07-17T08:56:07.679Z,23.70
2018-07-17T08:58:36.727Z,23.70
2018-07-17T09:01:05.992Z,23.70
2018-07-17T09:03:35.309Z,23.80
2018-07-17T09:06:04.597Z,23.80
2018-07-17T09:08:33.729Z,23.80
2018-07-17T09:11:02.913Z,23.80
2018-07-17T09:13:34.881Z,24.00
2018-07-17T09:16:04.287Z,24.20
2018-07-17T09:18:34.297Z,24.20
2018-07-17T09:21:03.518Z,24.10
2018-07-17T09:23:32.791Z,24.30
2018-07-17T09:26:02.089Z,24.50
2018-07-17T09:28:31.245Z,24.40
2018-07-17T09:31:01.819Z,24.40
2018-07-17T09:33:32.557Z,24.30
2018-07-17T09:36:01.835Z,24.30
2018-07-17T09:38:31.110Z,24.20
2018-07-17T09:41:00.164Z,24.30
2018-07-17T09:43:29.389Z,24.60
2018-07-17T09:45:58.757Z,24.70
2018-07-17T09:48:28.058Z,24.90
2018-07-17T09:50:57.265Z,24.90
2018-07-17T09:55:55.489Z,25.20
2018-07-17T09:58:24.737Z,25.30
2018-07-17T10:00:59.155Z,25.40
2018-07-17T10:03:31.731Z,25.30
2018-07-17T10:06:00.787Z,25.70
2018-07-17T10:08:29.882Z,25.80
2018-07-17T10:10:59.043Z,25.80
2018-07-17T10:13:28.297Z,25.60
2018-07-17T10:15:57.610Z,25.60
2018-07-17T10:18:27.099Z,25.80
2018-07-17T10:20:56.321Z,25.90
2018-07-17T10:23:25.619Z,26.10
2018-07-17T10:25:55.155Z,26.20
2018-07-17T10:28:24.294Z,26.10
2018-07-17T10:30:53.504Z,26.00
2018-07-17T10:35:51.959Z,25.60
2018-07-17T10:38:21.038Z,25.80
2018-07-17T10:40:50.220Z,26.20
2018-07-17T10:43:19.279Z,26.40
2018-07-17T10:45:49.016Z,26.80
2018-07-17T10:48:18.199Z,26.80
2018-07-17T10:50:47.338Z,26.70
2018-07-17T10:53:16.486Z,26.50
2018-07-17T10:55:45.935Z,26.70
2018-07-17T10:58:15.186Z,26.70
2018-07-17T11:00:44.418Z,26.70
2018-07-17T11:03:13.715Z,26.60
2018-07-17T11:05:43.192Z,26.60
2018-07-17T11:08:12.580Z,26.40
2018-07-17T11:10:41.709Z,26.30
2018-07-17T11:13:10.931Z,26.60
2018-07-17T11:15:40.143Z,27.10
2018-07-17T11:18:09.317Z,27.70
2018-07-17T11:20:38.955Z,28.00
2018-07-17T11:23:08.144Z,28.30
2018-07-17T11:25:37.736Z,28.10
2018-07-17T11:28:07.016Z,27.80
2018-07-17T11:30:36.210Z,27.60
2018-07-17T11:33:05.443Z,27.40
2018-07-17T11:35:35.442Z,27.40
2018-07-17T11:38:04.650Z,27.20
2018-07-17T11:43:02.528Z,27.40
2018-07-17T11:45:32.273Z,27.70
2018-07-17T11:48:01.410Z,27.90
2018-07-17T11:50:30.834Z,28.10
2018-07-17T11:53:00.057Z,28.10
2018-07-17T11:55:29.168Z,27.90
2018-07-17T11:57:58.248Z,28.00
2018-07-17T12:00:27.506Z,27.90
2018-07-17T12:02:57.025Z,27.90
2018-07-17T12:05:26.351Z,28.00
2018-07-17T12:07:55.553Z,27.70
2018-07-17T12:12:53.852Z,27.40
2018-07-17T12:15:23.842Z,27.50
2018-07-17T12:17:52.989Z,27.90
2018-07-17T12:20:23.686Z,28.30
2018-07-17T12:22:52.948Z,28.30
2018-07-17T12:25:22.078Z,28.50
2018-07-17T12:27:51.228Z,28.40
2018-07-17T12:30:20.488Z,28.50
2018-07-17T12:32:49.761Z,28.30
2018-07-17T12:35:18.964Z,27.90
2018-07-17T12:37:49.006Z,27.70
2018-07-17T12:40:18.126Z,27.70
2018-07-17T12:42:47.469Z,27.90
2018-07-17T12:45:16.664Z,28.10
2018-07-17T12:47:46.070Z,28.40
2018-07-17T12:50:15.540Z,28.50
2018-07-17T12:52:44.669Z,28.30
2018-07-17T12:55:14.005Z,28.30
2018-07-17T13:00:12.122Z,28.20
2018-07-17T13:02:41.376Z,28.50
2018-07-17T13:05:10.467Z,28.50
2018-07-17T13:12:37.329Z,29.00
2018-07-17T13:15:07.133Z,29.00
2018-07-17T13:17:36.396Z,28.90
2018-07-17T13:20:05.734Z,28.60
2018-07-17T13:22:34.833Z,28.30
2018-07-17T13:25:04.971Z,28.50
2018-07-17T13:27:34.226Z,28.40
2018-07-17T13:30:04.076Z,28.30
2018-07-17T13:32:33.236Z,28.20
2018-07-17T13:35:02.509Z,28.30
2018-07-17T13:37:32.009Z,28.40
2018-07-17T13:40:01.367Z,28.40
2018-07-17T13:42:30.469Z,28.40
2018-07-17T13:44:59.627Z,28.30
2018-07-17T13:47:28.998Z,28.30
2018-07-17T13:49:58.245Z,28.50
2018-07-17T13:52:27.452Z,28.50
2018-07-17T13:54:56.643Z,28.50
2018-07-17T13:57:25.970Z,28.70
2018-07-17T13:59:55.313Z,28.90
2018-07-17T14:02:24.418Z,28.70
2018-07-17T14:04:53.506Z,28.70
2018-07-17T14:07:22.871Z,28.70
2018-07-17T14:09:52.135Z,28.80
2018-07-17T14:12:21.304Z,28.90
2018-07-17T14:14:50.719Z,28.90
2018-07-17T14:17:19.967Z,28.80
2018-07-17T14:19:49.133Z,28.90
2018-07-17T14:22:18.450Z,28.70
2018-07-17T14:24:47.755Z,28.50
2018-07-17T14:27:16.891Z,28.10
2018-07-17T14:32:14.844Z,28.10
2018-07-17T14:34:44.081Z,28.30
2018-07-17T14:37:13.631Z,28.60
2018-07-17T14:39:42.851Z,28.70
2018-07-17T14:42:12.371Z,28.70
2018-07-17T14:44:42.227Z,28.80
2018-07-17T14:47:11.468Z,28.90
2018-07-17T14:49:40.661Z,28.80
2018-07-17T14:52:09.973Z,28.90
2018-07-17T14:54:39.299Z,29.00
2018-07-17T14:57:08.567Z,28.80
2018-07-17T14:59:37.906Z,28.70
2018-07-17T15:02:07.675Z,28.50
2018-07-17T15:04:36.874Z,28.70
2018-07-17T15:07:06.326Z,29.30
2018-07-17T15:09:35.630Z,29.90
2018-07-17T15:12:04.964Z,29.70
2018-07-17T15:17:03.016Z,29.90
2018-07-17T15:19:32.396Z,29.70
2018-07-17T15:22:01.498Z,29.30
2018-07-17T15:24:30.769Z,29.20
2018-07-17T15:26:59.863Z,29.80
2018-07-17T15:29:29.740Z,30.10
2018-07-17T15:31:59.248Z,29.60
2018-07-17T15:34:28.408Z,29.40
2018-07-17T15:36:57.485Z,29.00
2018-07-17T15:39:26.629Z,28.80
2018-07-17T15:41:55.877Z,28.90
2018-07-17T15:44:25.678Z,28.90
2018-07-17T15:46:55.729Z,28.80
2018-07-17T15:49:24.795Z,28.60
2018-07-17T15:51:54.108Z,28.50
2018-07-17T15:54:23.600Z,28.30
2018-07-17T15:56:53.807Z,28.10
2018-07-17T15:59:23.058Z,28.00
2018-07-17T16:01:52.185Z,28.10
2018-07-17T16:04:21.743Z,28.80
2018-07-17T16:06:51.163Z,29.00
2018-07-17T16:09:20.920Z,29.10
2018-07-17T16:11:50.060Z,29.10
2018-07-17T16:14:20.376Z,28.90
2018-07-17T16:16:50.305Z,28.90
2018-07-17T16:19:19.476Z,29.40
2018-07-17T16:21:48.687Z,29.40
2018-07-17T16:24:18.054Z,29.20
2018-07-17T16:26:47.250Z,28.90
2018-07-17T16:29:16.462Z,28.60
2018-07-17T16:31:45.776Z,28.40
2018-07-17T16:34:14.962Z,28.90
2018-07-17T16:36:44.163Z,29.60
2018-07-17T16:39:13.552Z,30.00
2018-07-17T16:41:42.710Z,30.00
2018-07-17T16:44:12.000Z,30.00
2018-07-17T16:46:41.589Z,29.60
2018-07-17T16:49:10.793Z,29.10
2018-07-17T16:51:41.477Z,28.90
2018-07-17T16:54:10.849Z,28.80
2018-07-17T16:56:40.023Z,28.50
2018-07-17T16:59:09.967Z,28.00
2018-07-17T17:01:39.135Z,27.80
2018-07-17T17:04:08.382Z,28.40
2018-07-17T17:06:38.460Z,28.70
2018-07-17T17:09:11.146Z,28.90
2018-07-17T17:11:40.424Z,28.80
2018-07-17T17:14:09.528Z,28.20
2018-07-17T17:16:39.468Z,27.70
2018-07-17T17:19:08.635Z,27.70
2018-07-17T17:21:38.721Z,27.70
2018-07-17T17:24:08.203Z,27.80
2018-07-17T17:26:37.274Z,27.70
2018-07-17T17:29:06.479Z,27.80
2018-07-17T17:34:04.440Z,28.00
2018-07-17T17:36:33.689Z,27.90
2018-07-17T17:44:00.630Z,28.40
2018-07-17T17:46:29.946Z,28.90
2018-07-17T17:48:59.128Z,29.00
2018-07-17T17:53:57.238Z,29.20
2018-07-17T17:56:27.275Z,29.30
2018-07-17T17:58:57.228Z,29.20
2018-07-17T18:01:26.768Z,28.90
2018-07-17T18:03:55.949Z,28.80
2018-07-17T18:06:25.176Z,28.70
2018-07-17T18:08:55.078Z,27.70
2018-07-17T18:11:24.289Z,27.00
2018-07-17T18:13:53.478Z,26.40
2018-07-17T18:16:23.575Z,25.90
2018-07-17T18:18:53.091Z,25.40
2018-07-17T18:21:22.275Z,25.10
2018-07-17T18:23:51.481Z,24.90
2018-07-17T18:26:20.580Z,24.80
2018-07-17T18:28:50.480Z,24.70
2018-07-17T18:31:20.149Z,24.60
2018-07-17T18:33:49.469Z,24.50
2018-07-17T18:36:18.793Z,24.40
2018-07-17T18:38:47.948Z,24.20
2018-07-17T18:41:17.206Z,24.00
2018-07-17T18:43:46.463Z,23.90
2018-07-17T18:46:15.666Z,23.80
2018-07-17T18:48:48.811Z,23.70
2018-07-17T18:51:18.300Z,23.60
2018-07-17T18:53:47.993Z,23.50
2018-07-17T18:56:17.426Z,23.40
2018-07-17T18:58:47.392Z,23.30
2018-07-17T19:01:16.597Z,23.30
2018-07-17T19:03:45.924Z,23.20
2018-07-17T19:06:15.012Z,23.10
2018-07-17T19:08:44.142Z,23.00
2018-07-17T19:11:14.385Z,22.90
2018-07-17T19:13:44.016Z,22.80
2018-07-17T19:16:13.241Z,22.70
2018-07-17T19:18:42.641Z,22.60
2018-07-17T19:21:11.801Z,22.60
2018-07-17T19:23:41.132Z,22.50
2018-07-17T19:26:11.155Z,22.40
2018-07-17T19:28:40.359Z,22.40
2018-07-17T19:31:10.130Z,22.30
2018-07-17T19:33:39.349Z,22.20
2018-07-17T19:36:08.754Z,22.20
2018-07-17T19:38:37.937Z,22.10
2018-07-17T19:41:07.416Z,22.00
2018-07-17T19:43:36.726Z,21.90
2018-07-17T19:46:06.109Z,21.80
2018-07-17T19:48:35.400Z,21.80
2018-07-17T19:53:33.373Z,21.60
2018-07-17T19:56:02.483Z,21.50
2018-07-17T19:58:31.703Z,21.40
2018-07-17T20:01:01.255Z,21.30
2018-07-17T20:03:30.366Z,21.20
2018-07-17T20:05:59.546Z,21.10
2018-07-17T20:08:29.061Z,21.00
2018-07-17T20:10:58.308Z,21.00
2018-07-17T20:13:27.870Z,20.90
2018-07-17T20:15:57.120Z,20.80
2018-07-17T20:18:26.238Z,20.80
2018-07-17T20:20:55.559Z,20.70
2018-07-17T20:23:24.827Z,20.70
2018-07-17T20:25:54.187Z,20.60
2018-07-17T20:28:23.354Z,20.60
2018-07-17T20:30:52.525Z,20.60
2018-07-17T20:33:21.846Z,20.50
2018-07-17T20:35:50.980Z,20.50
2018-07-17T20:38:20.156Z,20.50
2018-07-17T20:40:49.406Z,20.30
2018-07-17T20:43:18.754Z,20.20
2018-07-17T20:45:48.041Z,20.20
2018-07-17T20:48:17.161Z,20.10
2018-07-17T20:53:15.135Z,19.90
2018-07-17T20:55:44.714Z,19.90
2018-07-17T20:58:13.908Z,19.80
2018-07-17T21:00:43.215Z,19.70
2018-07-17T21:03:12.348Z,19.70
2018-07-17T21:10:39.294Z,19.50
2018-07-17T21:13:08.601Z,19.40
2018-07-17T21:15:37.928Z,19.40
2018-07-17T21:18:07.768Z,19.30
2018-07-17T21:20:37.513Z,19.20
2018-07-17T21:23:06.818Z,19.10
2018-07-17T21:25:36.010Z,19.10
2018-07-17T21:28:05.482Z,19.00
2018-07-17T21:30:35.166Z,19.00
2018-07-17T21:33:04.288Z,18.90
2018-07-17T21:35:34.307Z,18.90
2018-07-17T21:38:03.450Z,18.80
2018-07-17T21:40:32.681Z,18.80
2018-07-17T21:43:02.645Z,18.70
2018-07-17T21:45:31.773Z,18.70
2018-07-17T21:48:00.908Z,18.70
2018-07-17T21:50:30.173Z,18.60
2018-07-17T21:52:59.419Z,18.50
2018-07-17T21:55:29.070Z,18.40
2018-07-17T21:57:58.174Z,18.30
2018-07-17T22:02:56.918Z,18.20
2018-07-17T22:05:26.740Z,18.20
2018-07-17T22:07:56.095Z,18.10
2018-07-17T22:10:25.513Z,18.10
2018-07-17T22:12:54.716Z,18.00
2018-07-17T22:15:24.126Z,18.00
2018-07-17T22:17:53.165Z,18.00
2018-07-17T22:20:22.591Z,17.90
2018-07-17T22:22:51.774Z,17.90
2018-07-17T22:25:21.027Z,17.90
2018-07-17T22:27:50.190Z,17.90
2018-07-17T22:30:19.456Z,17.80
2018-07-17T22:32:49.615Z,17.80
2018-07-17T22:37:47.779Z,17.70
2018-07-17T22:40:17.010Z,17.60
2018-07-17T22:42:46.245Z,17.60
2018-07-17T22:45:15.389Z,17.50
2018-07-17T22:47:44.686Z,17.50
2018-07-17T22:50:13.991Z,17.40
2018-07-17T22:52:43.082Z,17.40
2018-07-17T22:55:12.261Z,17.30
2018-07-17T22:57:41.683Z,17.30
2018-07-17T23:00:10.874Z,17.20
2018-07-17T23:02:40.064Z,17.20
2018-07-17T23:05:09.217Z,17.10
2018-07-17T23:07:38.704Z,17.00
2018-07-17T23:10:07.898Z,17.00
2018-07-17T23:12:37.125Z,16.90
2018-07-17T23:15:06.492Z,16.90
2018-07-17T23:17:35.998Z,16.80
2018-07-17T23:20:05.550Z,16.70
2018-07-17T23:22:48.936Z,16.60
2018-07-17T23:25:18.525Z,16.50
2018-07-17T23:27:47.604Z,16.40
2018-07-17T23:30:17.152Z,16.40
2018-07-17T23:32:46.645Z,16.40
2018-07-17T23:35:16.354Z,16.40
2018-07-17T23:37:45.441Z,16.40
2018-07-17T23:40:14.958Z,16.40
2018-07-17T23:42:44.254Z,16.40
2018-07-17T23:45:14.336Z,16.30
2018-07-17T23:47:43.893Z,16.30
2018-07-17T23:50:13.294Z,16.20
2018-07-17T23:52:43.076Z,16.20
2018-07-17T23:55:13.210Z,16.20
2018-07-17T23:57:42.495Z,16.20
